Time;durP1;ratioP1;P1;durP2;ratioP2;P2;SDS_P1;SDS_P2;PMS_P1;PMS_P2;Temp;Humidity;BMP_temperature;BMP_pressure;BME280_temperature;BME280_humidity;BME280_pressure;Samples;Min_cycle;Max_cycle;Signal;HPM_P1;HPM_P2
2021/05/28 00:00:46;;;;;;;0.10;0.10;;;;;;;;;;5083206;28;20423;-67
2021/05/28 00:03:13;;;;;;;0.10;0.10;;;;;;;;;;5083375;28;20201;-68
2021/05/28 00:05:39;;;;;;;0.10;0.10;;;;;;;;;;5083369;28;20207;-68
2021/05/28 00:08:05;;;;;;;0.10;0.10;;;;;;;;;;5079905;28;20341;-69
2021/05/28 00:10:30;;;;;;;0.10;0.10;;;;;;;;;;5083241;28;20202;-66
2021/05/28 00:12:56;;;;;;;0.10;0.10;;;;;;;;;;5080940;28;20228;-66
2021/05/28 00:15:22;;;;;;;0.10;0.10;;;;;;;;;;5083119;28;20211;-68
2021/05/28 00:17:48;;;;;;;0.10;0.10;;;;;;;;;;5082735;28;20226;-69
2021/05/28 00:20:15;;;;;;;0.10;0.10;;;;;;;;;;5082735;28;20225;-67
2021/05/28 00:22:42;;;;;;;0.10;0.10;;;;;;;;;;5083269;28;20207;-66
2021/05/28 00:25:08;;;;;;;0.10;0.10;;;;;;;;;;5082433;28;20287;-67
2021/05/28 00:27:34;;;;;;;0.10;0.10;;;;;;;;;;5082872;28;20202;-67
2021/05/28 00:30:00;;;;;;;0.10;0.10;;;;;;;;;;5085307;28;20218;-67
2021/05/28 00:32:26;;;;;;;0.10;0.10;;;;;;;;;;5089449;28;20249;-67
2021/05/28 00:34:52;;;;;;;0.10;0.10;;;;;;;;;;5077043;28;20234;-67
2021/05/28 00:37:18;;;;;;;0.10;0.10;;;;;;;;;;5084515;28;20209;-67
2021/05/28 00:39:44;;;;;;;0.10;0.10;;;;;;;;;;5086207;28;20217;-67
2021/05/28 00:42:10;;;;;;;0.20;0.20;;;;;;;;;;5086207;28;20612;-67
2021/05/28 00:44:37;;;;;;;0.10;0.10;;;;;;;;;;5086290;28;20587;-67
2021/05/28 00:47:03;;;;;;;0.10;0.10;;;;;;;;;;5086018;28;20533;-68
2021/05/28 00:49:28;;;;;;;0.20;0.20;;;;;;;;;;5086262;28;20214;-67
2021/05/28 00:51:54;;;;;;;0.10;0.10;;;;;;;;;;5086209;28;20205;-68
2021/05/28 00:54:21;;;;;;;0.10;0.10;;;;;;;;;;5086142;28;20199;-67
2021/05/28 00:56:47;;;;;;;0.10;0.10;;;;;;;;;;5085825;28;20211;-67
2021/05/28 00:59:14;;;;;;;0.10;0.10;;;;;;;;;;5086017;28;20207;-68
2021/05/28 01:01:39;;;;;;;0.10;0.10;;;;;;;;;;5075230;28;20208;-68
2021/05/28 01:04:06;;;;;;;0.10;0.10;;;;;;;;;;5080453;28;20266;-68
2021/05/28 01:06:32;;;;;;;0.10;0.10;;;;;;;;;;5083021;28;20200;-68
2021/05/28 01:08:57;;;;;;;0.10;0.10;;;;;;;;;;5078539;28;20214;-67
2021/05/28 01:11:24;;;;;;;0.10;0.10;;;;;;;;;;5080304;28;20256;-68
2021/05/28 01:13:50;;;;;;;0.10;0.10;;;;;;;;;;5085951;28;20494;-67
2021/05/28 01:16:16;;;;;;;0.10;0.10;;;;;;;;;;5085500;28;20218;-68
2021/05/28 01:18:41;;;;;;;0.10;0.10;;;;;;;;;;5085768;28;20222;-68
2021/05/28 01:21:08;;;;;;;0.10;0.10;;;;;;;;;;5085511;28;20423;-68
2021/05/28 01:23:36;;;;;;;0.10;0.10;;;;;;;;;;5085415;28;20211;-68
2021/05/28 01:26:01;;;;;;;0.10;0.10;;;;;;;;;;5085722;28;20209;-67
2021/05/28 01:28:27;;;;;;;0.10;0.10;;;;;;;;;;5085203;28;20232;-68
2021/05/28 01:30:53;;;;;;;0.10;0.10;;;;;;;;;;5079790;28;20210;-67
2021/05/28 01:33:19;;;;;;;0.10;0.10;;;;;;;;;;5091492;28;20205;-67
2021/05/28 01:35:44;;;;;;;0.10;0.10;;;;;;;;;;5080228;28;20204;-68
2021/05/28 01:38:10;;;;;;;0.10;0.10;;;;;;;;;;5082993;28;20269;-68
2021/05/28 01:40:37;;;;;;;0.10;0.10;;;;;;;;;;5084462;28;20213;-68
2021/05/28 01:43:03;;;;;;;0.10;0.10;;;;;;;;;;5084883;28;20274;-68
2021/05/28 01:45:28;;;;;;;0.10;0.10;;;;;;;;;;5085161;28;20233;-69
2021/05/28 01:47:54;;;;;;;0.10;0.10;;;;;;;;;;5084815;28;20491;-67
2021/05/28 01:50:20;;;;;;;0.10;0.10;;;;;;;;;;5084955;28;20206;-68
2021/05/28 01:52:46;;;;;;;0.10;0.10;;;;;;;;;;5085042;28;20218;-67
2021/05/28 01:55:12;;;;;;;0.10;0.10;;;;;;;;;;5085067;28;20210;-68
2021/05/28 01:57:39;;;;;;;0.10;0.10;;;;;;;;;;5085130;28;20372;-67
2021/05/28 02:00:06;;;;;;;0.10;0.10;;;;;;;;;;5082026;28;20203;-68
2021/05/28 02:02:31;;;;;;;0.10;0.10;;;;;;;;;;5085026;28;20206;-66
2021/05/28 02:04:57;;;;;;;0.10;0.10;;;;;;;;;;5084821;28;20229;-68
2021/05/28 02:07:23;;;;;;;0.10;0.10;;;;;;;;;;5084432;28;20213;-67
2021/05/28 02:09:49;;;;;;;0.10;0.10;;;;;;;;;;5082167;28;20203;-67
2021/05/28 02:12:14;;;;;;;0.10;0.10;;;;;;;;;;5072892;28;20211;-67
2021/05/28 02:14:41;;;;;;;0.10;0.10;;;;;;;;;;5084473;28;20436;-67
2021/05/28 02:17:09;;;;;;;0.10;0.10;;;;;;;;;;5083662;28;20404;-67
2021/05/28 02:19:35;;;;;;;0.10;0.10;;;;;;;;;;5077672;28;20208;-67
2021/05/28 02:22:00;;;;;;;0.10;0.10;;;;;;;;;;5081311;28;20252;-67
2021/05/28 02:24:26;;;;;;;0.10;0.10;;;;;;;;;;5084036;28;20264;-69
2021/05/28 02:26:55;;;;;;;0.10;0.10;;;;;;;;;;5076650;28;20229;-67
2021/05/28 02:29:21;;;;;;;0.10;0.10;;;;;;;;;;5084249;28;20211;-68
2021/05/28 02:31:48;;;;;;;0.10;0.10;;;;;;;;;;5075772;28;20555;-68
2021/05/28 02:34:14;;;;;;;0.10;0.10;;;;;;;;;;5083344;28;20208;-67
2021/05/28 02:36:39;;;;;;;0.10;0.10;;;;;;;;;;5084183;28;20512;-67
2021/05/28 02:39:06;;;;;;;0.10;0.10;;;;;;;;;;5084074;28;20456;-66
2021/05/28 02:41:32;;;;;;;0.20;0.20;;;;;;;;;;5082326;28;20194;-68
2021/05/28 02:43:58;;;;;;;0.10;0.10;;;;;;;;;;5083883;28;20224;-68
2021/05/28 02:46:23;;;;;;;0.10;0.10;;;;;;;;;;5084121;28;20485;-68
2021/05/28 02:48:50;;;;;;;0.10;0.10;;;;;;;;;;5083960;28;20229;-69
2021/05/28 02:51:16;;;;;;;0.13;0.13;;;;;;;;;;5074885;28;20252;-67
2021/05/28 02:53:42;;;;;;;0.10;0.10;;;;;;;;;;5070593;28;20242;-67
2021/05/28 02:56:07;;;;;;;0.10;0.10;;;;;;;;;;5084396;28;20212;-69
2021/05/28 02:58:33;;;;;;;0.10;0.10;;;;;;;;;;5075317;28;20229;-67
2021/05/28 03:00:59;;;;;;;0.10;0.10;;;;;;;;;;5087937;28;20392;-67
2021/05/28 03:03:25;;;;;;;0.10;0.10;;;;;;;;;;5086814;28;20327;-68
2021/05/28 03:05:51;;;;;;;0.10;0.10;;;;;;;;;;5083669;28;20249;-68
2021/05/28 03:08:17;;;;;;;0.10;0.10;;;;;;;;;;5083737;28;20527;-67
2021/05/28 03:10:43;;;;;;;0.10;0.10;;;;;;;;;;5083381;28;20210;-69
2021/05/28 03:13:09;;;;;;;0.10;0.10;;;;;;;;;;5081562;28;20229;-67
2021/05/28 03:15:35;;;;;;;0.10;0.10;;;;;;;;;;5083709;28;20202;-68
2021/05/28 03:18:00;;;;;;;0.10;0.10;;;;;;;;;;5083523;28;20206;-68
2021/05/28 03:20:32;;;;;;;0.10;0.10;;;;;;;;;;5083673;28;20260;-67
2021/05/28 03:22:59;;;;;;;0.10;0.10;;;;;;;;;;5083278;28;20199;-67
2021/05/28 03:25:25;;;;;;;0.10;0.10;;;;;;;;;;5075964;28;20237;-67
2021/05/28 03:27:51;;;;;;;0.10;0.10;;;;;;;;;;5073017;28;20203;-67
2021/05/28 03:30:17;;;;;;;0.10;0.10;;;;;;;;;;5083564;28;20213;-68
2021/05/28 03:32:43;;;;;;;0.10;0.10;;;;;;;;;;5083250;28;20210;-68
2021/05/28 03:35:09;;;;;;;0.10;0.10;;;;;;;;;;5081907;28;20201;-68
2021/05/28 03:37:35;;;;;;;0.10;0.10;;;;;;;;;;5083200;28;20205;-68
2021/05/28 03:40:01;;;;;;;0.10;0.10;;;;;;;;;;5083035;28;20223;-68
2021/05/28 03:42:27;;;;;;;0.10;0.10;;;;;;;;;;5083396;28;20211;-69
2021/05/28 03:44:53;;;;;;;0.10;0.10;;;;;;;;;;5084056;28;20243;-67
2021/05/28 03:47:20;;;;;;;0.10;0.10;;;;;;;;;;5084288;28;20255;-68
2021/05/28 03:49:46;;;;;;;0.40;0.40;;;;;;;;;;5083388;28;20424;-67
2021/05/28 03:52:12;;;;;;;0.10;0.10;;;;;;;;;;5088436;28;20199;-67
2021/05/28 03:54:37;;;;;;;0.10;0.10;;;;;;;;;;5090554;28;20217;-68
2021/05/28 03:57:05;;;;;;;0.10;0.10;;;;;;;;;;5083160;28;20229;-67
2021/05/28 03:59:30;;;;;;;0.10;0.10;;;;;;;;;;5082909;28;20204;-68
2021/05/28 04:01:56;;;;;;;0.10;0.10;;;;;;;;;;5082483;28;20267;-67
2021/05/28 04:04:22;;;;;;;0.10;0.10;;;;;;;;;;5084371;28;20271;-66
2021/05/28 04:06:47;;;;;;;0.10;0.10;;;;;;;;;;5086735;28;20206;-66
2021/05/28 04:09:13;;;;;;;0.10;0.10;;;;;;;;;;5086994;28;20200;-67
2021/05/28 04:11:39;;;;;;;0.10;0.10;;;;;;;;;;5081141;28;20204;-69
2021/05/28 04:14:06;;;;;;;0.10;0.10;;;;;;;;;;5084397;28;20366;-68
2021/05/28 04:16:31;;;;;;;0.10;0.10;;;;;;;;;;5086659;28;20224;-67
2021/05/28 04:18:57;;;;;;;0.10;0.10;;;;;;;;;;5086859;28;20212;-67
2021/05/28 04:21:23;;;;;;;0.10;0.10;;;;;;;;;;5086848;28;20513;-68
2021/05/28 04:23:49;;;;;;;0.10;0.10;;;;;;;;;;5087065;28;20551;-68
2021/05/28 04:26:14;;;;;;;0.10;0.10;;;;;;;;;;5086733;28;20227;-67
2021/05/28 04:28:40;;;;;;;0.10;0.10;;;;;;;;;;5086474;28;20205;-68
2021/05/28 04:31:07;;;;;;;0.10;0.10;;;;;;;;;;5086523;28;20276;-67
2021/05/28 04:33:32;;;;;;;0.10;0.10;;;;;;;;;;5086570;28;20212;-69
2021/05/28 04:35:58;;;;;;;0.10;0.10;;;;;;;;;;5085975;28;20552;-68
2021/05/28 04:38:24;;;;;;;0.10;0.10;;;;;;;;;;5086115;28;20220;-69
2021/05/28 04:40:51;;;;;;;0.10;0.10;;;;;;;;;;5086449;28;20222;-68
2021/05/28 04:43:17;;;;;;;0.10;0.10;;;;;;;;;;5090522;28;20537;-68
2021/05/28 04:45:43;;;;;;;0.10;0.10;;;;;;;;;;5088929;28;20288;-68
2021/05/28 04:48:10;;;;;;;0.10;0.10;;;;;;;;;;5086403;28;20201;-68
2021/05/28 04:50:37;;;;;;;0.10;0.10;;;;;;;;;;5086295;28;20293;-67
2021/05/28 04:53:03;;;;;;;0.10;0.10;;;;;;;;;;5086330;28;20210;-68
2021/05/28 04:55:29;;;;;;;0.10;0.10;;;;;;;;;;5086345;28;20200;-68
2021/05/28 04:57:55;;;;;;;0.10;0.10;;;;;;;;;;5086305;28;20212;-68
2021/05/28 05:00:22;;;;;;;0.10;0.10;;;;;;;;;;5084346;28;20205;-67
2021/05/28 05:02:47;;;;;;;0.10;0.10;;;;;;;;;;5085842;28;20204;-67
2021/05/28 05:05:14;;;;;;;0.10;0.10;;;;;;;;;;5085732;28;20225;-67
2021/05/28 05:07:40;;;;;;;0.10;0.10;;;;;;;;;;5086064;28;20373;-67
2021/05/28 05:10:06;;;;;;;0.10;0.10;;;;;;;;;;5086130;28;20229;-67
2021/05/28 05:12:32;;;;;;;0.10;0.10;;;;;;;;;;5085635;28;20200;-67
2021/05/28 05:14:58;;;;;;;0.10;0.10;;;;;;;;;;5083341;28;20201;-68
2021/05/28 05:17:24;;;;;;;0.10;0.10;;;;;;;;;;5079980;28;20410;-67
2021/05/28 05:19:50;;;;;;;0.10;0.10;;;;;;;;;;5095103;28;20249;-68
2021/05/28 05:22:17;;;;;;;0.10;0.10;;;;;;;;;;5090552;28;20541;-67
2021/05/28 05:24:42;;;;;;;0.10;0.10;;;;;;;;;;5083981;28;20230;-67
2021/05/28 05:27:08;;;;;;;0.10;0.10;;;;;;;;;;5089032;28;20233;-68
2021/05/28 05:29:34;;;;;;;0.10;0.10;;;;;;;;;;5088507;28;20213;-67
2021/05/28 05:32:00;;;;;;;0.10;0.10;;;;;;;;;;5094368;28;20209;-67
2021/05/28 05:34:25;;;;;;;0.10;0.10;;;;;;;;;;5093819;28;20204;-67
2021/05/28 05:36:51;;;;;;;0.10;0.10;;;;;;;;;;5082334;28;20223;-67
2021/05/28 05:39:18;;;;;;;0.10;0.10;;;;;;;;;;5081398;28;20354;-68
2021/05/28 05:41:44;;;;;;;0.10;0.10;;;;;;;;;;5090637;28;20230;-67
2021/05/28 05:44:10;;;;;;;0.10;0.10;;;;;;;;;;5085856;28;20236;-68
2021/05/28 05:46:35;;;;;;;0.10;0.10;;;;;;;;;;5083334;28;20211;-66
2021/05/28 05:49:01;;;;;;;0.10;0.10;;;;;;;;;;5093801;28;20203;-67
2021/05/28 05:51:27;;;;;;;0.10;0.10;;;;;;;;;;5086611;28;20193;-67
2021/05/28 05:53:53;;;;;;;0.10;0.10;;;;;;;;;;5092997;28;20230;-67
2021/05/28 05:56:19;;;;;;;0.10;0.10;;;;;;;;;;5086347;28;20205;-67
2021/05/28 05:58:45;;;;;;;0.10;0.10;;;;;;;;;;5090283;28;20237;-66
2021/05/28 06:01:11;;;;;;;0.10;0.10;;;;;;;;;;5087599;28;20214;-67
2021/05/28 06:03:36;;;;;;;0.93;0.93;;;;;;;;;;5087325;28;20201;-67
2021/05/28 06:06:02;;;;;;;0.10;0.10;;;;;;;;;;5084739;28;20466;-69
2021/05/28 06:08:28;;;;;;;0.10;0.10;;;;;;;;;;5086154;28;20204;-67
2021/05/28 06:10:54;;;;;;;0.10;0.10;;;;;;;;;;5084844;28;20394;-67
2021/05/28 06:13:20;;;;;;;0.10;0.10;;;;;;;;;;5083581;28;20216;-67
2021/05/28 06:15:46;;;;;;;0.10;0.10;;;;;;;;;;5084536;28;20504;-67
2021/05/28 06:18:12;;;;;;;0.10;0.10;;;;;;;;;;5081466;28;20218;-68
2021/05/28 06:20:38;;;;;;;0.10;0.10;;;;;;;;;;5083394;28;20245;-68
2021/05/28 06:23:03;;;;;;;0.10;0.10;;;;;;;;;;5076982;28;20380;-67
2021/05/28 06:25:29;;;;;;;0.10;0.10;;;;;;;;;;5079838;28;20238;-66
2021/05/28 06:27:55;;;;;;;0.10;0.10;;;;;;;;;;5082797;28;20224;-67
2021/05/28 06:30:22;;;;;;;0.10;0.10;;;;;;;;;;5083584;28;20298;-67
2021/05/28 06:32:47;;;;;;;0.10;0.10;;;;;;;;;;5079352;28;20265;-67
2021/05/28 06:35:13;;;;;;;0.10;0.10;;;;;;;;;;5082533;28;20195;-67
2021/05/28 06:37:39;;;;;;;0.10;0.10;;;;;;;;;;5082370;28;20234;-69
2021/05/28 06:40:06;;;;;;;0.10;0.10;;;;;;;;;;5078350;28;20398;-68
2021/05/28 06:42:32;;;;;;;0.10;0.10;;;;;;;;;;5094267;28;20247;-67
2021/05/28 06:44:58;;;;;;;0.10;0.10;;;;;;;;;;5082757;28;20415;-67
2021/05/28 06:47:25;;;;;;;0.10;0.10;;;;;;;;;;5082728;28;20211;-68
2021/05/28 06:49:51;;;;;;;0.10;0.10;;;;;;;;;;5087937;28;20232;-68
2021/05/28 06:52:17;;;;;;;0.10;0.10;;;;;;;;;;5077528;28;20398;-67
2021/05/28 06:54:43;;;;;;;0.10;0.10;;;;;;;;;;5091358;28;20209;-67
2021/05/28 06:57:09;;;;;;;0.10;0.10;;;;;;;;;;5088571;28;20210;-67
2021/05/28 06:59:34;;;;;;;0.10;0.10;;;;;;;;;;5089781;28;20209;-67
2021/05/28 07:02:00;;;;;;;0.10;0.10;;;;;;;;;;5087923;28;20213;-67
2021/05/28 07:04:27;;;;;;;0.10;0.10;;;;;;;;;;5084648;28;20234;-68
2021/05/28 07:06:53;;;;;;;0.10;0.10;;;;;;;;;;5091901;28;20281;-68
2021/05/28 07:09:18;;;;;;;0.10;0.10;;;;;;;;;;5083977;28;20335;-69
2021/05/28 07:11:44;;;;;;;0.10;0.10;;;;;;;;;;5081388;28;20202;-68
2021/05/28 07:14:10;;;;;;;0.10;0.10;;;;;;;;;;5086309;28;20212;-67
2021/05/28 07:16:36;;;;;;;0.10;0.10;;;;;;;;;;5079930;28;20219;-68
2021/05/28 07:19:01;;;;;;;0.10;0.10;;;;;;;;;;5088129;28;20247;-67
2021/05/28 07:21:28;;;;;;;0.10;0.10;;;;;;;;;;5083783;28;20229;-67
2021/05/28 07:23:54;;;;;;;0.10;0.10;;;;;;;;;;5081946;28;20207;-65
2021/05/28 07:26:20;;;;;;;0.10;0.10;;;;;;;;;;5083769;28;20390;-66
2021/05/28 07:28:46;;;;;;;0.10;0.10;;;;;;;;;;5072100;28;20202;-67
2021/05/28 07:31:12;;;;;;;0.10;0.10;;;;;;;;;;5080204;28;20436;-72
2021/05/28 07:33:38;;;;;;;0.10;0.10;;;;;;;;;;5085619;28;20516;-72
2021/05/28 07:36:05;;;;;;;0.10;0.10;;;;;;;;;;5080692;28;20197;-71
2021/05/28 07:38:31;;;;;;;0.10;0.10;;;;;;;;;;5091177;28;20257;-72
2021/05/28 07:40:57;;;;;;;0.10;0.10;;;;;;;;;;5085505;28;20271;-72
2021/05/28 07:43:23;;;;;;;0.10;0.10;;;;;;;;;;5080121;28;20339;-73
2021/05/28 07:45:50;;;;;;;0.10;0.10;;;;;;;;;;5078418;28;20229;-77
2021/05/28 07:48:16;;;;;;;0.10;0.10;;;;;;;;;;5078113;28;20381;-74
2021/05/28 07:50:45;;;;;;;0.10;0.10;;;;;;;;;;5082382;28;20211;-75
2021/05/28 07:53:11;;;;;;;0.10;0.10;;;;;;;;;;5083355;28;20297;-72
2021/05/28 07:55:38;;;;;;;0.10;0.10;;;;;;;;;;5086932;28;20207;-71
2021/05/28 07:58:04;;;;;;;0.10;0.10;;;;;;;;;;5087753;28;20381;-71
2021/05/28 08:00:30;;;;;;;0.10;0.10;;;;;;;;;;5081761;28;20205;-72
2021/05/28 08:02:56;;;;;;;0.10;0.10;;;;;;;;;;5082881;28;20200;-71
2021/05/28 08:05:22;;;;;;;0.10;0.10;;;;;;;;;;5087205;28;20227;-75
2021/05/28 08:07:48;;;;;;;0.10;0.10;;;;;;;;;;5074898;28;20210;-75
2021/05/28 08:10:15;;;;;;;0.10;0.10;;;;;;;;;;5089514;28;20278;-72
2021/05/28 08:12:42;;;;;;;0.10;0.10;;;;;;;;;;5080519;28;20205;-73
2021/05/28 08:15:08;;;;;;;0.10;0.10;;;;;;;;;;5083032;28;20213;-72
2021/05/28 08:17:34;;;;;;;0.10;0.10;;;;;;;;;;5083062;28;20205;-73
2021/05/28 08:20:00;;;;;;;0.10;0.10;;;;;;;;;;5083483;28;20285;-72
2021/05/28 08:22:26;;;;;;;0.10;0.10;;;;;;;;;;5088314;28;20364;-75
2021/05/28 08:24:52;;;;;;;0.10;0.10;;;;;;;;;;5093874;28;20230;-73
2021/05/28 08:27:18;;;;;;;0.10;0.10;;;;;;;;;;5085670;28;20502;-72
2021/05/28 08:29:45;;;;;;;0.10;0.10;;;;;;;;;;5087747;28;20209;-72
2021/05/28 08:32:10;;;;;;;0.10;0.10;;;;;;;;;;5086915;28;20234;-71
2021/05/28 08:34:37;;;;;;;0.10;0.10;;;;;;;;;;5086944;28;20394;-71
2021/05/28 08:37:03;;;;;;;0.10;0.10;;;;;;;;;;5086205;28;20228;-71
2021/05/28 08:39:29;;;;;;;0.10;0.10;;;;;;;;;;5077453;28;20234;-70
2021/05/28 08:41:55;;;;;;;0.10;0.10;;;;;;;;;;5079230;28;20273;-71
2021/05/28 08:44:23;;;;;;;1.40;1.13;;;;;;;;;;5080903;28;20222;-70
2021/05/28 08:46:50;;;;;;;0.10;0.10;;;;;;;;;;5081804;28;20204;-72
2021/05/28 08:49:16;;;;;;;0.10;0.10;;;;;;;;;;5080265;28;20505;-73
2021/05/28 08:51:43;;;;;;;0.10;0.10;;;;;;;;;;5080909;28;20203;-73
2021/05/28 08:54:09;;;;;;;0.00;0.00;;;;;;;;;;5086215;28;20205;-71
2021/05/28 08:56:35;;;;;;;0.10;0.10;;;;;;;;;;5085659;28;20270;-73
2021/05/28 08:59:03;;;;;;;0.10;0.10;;;;;;;;;;5084957;28;20230;-72
2021/05/28 09:01:29;;;;;;;0.10;0.10;;;;;;;;;;5085752;28;20207;-73
2021/05/28 09:04:00;;;;;;;0.10;0.10;;;;;;;;;;5088101;28;20550;-74
2021/05/28 09:06:36;;;;;;;0.03;0.03;;;;;;;;;;5091314;28;20206;-73
2021/05/28 09:09:09;;;;;;;0.10;0.10;;;;;;;;;;5084072;28;20216;-68
2021/05/28 09:11:49;;;;;;;0.10;0.10;;;;;;;;;;5091298;28;20232;-68
2021/05/28 09:14:28;;;;;;;0.10;0.10;;;;;;;;;;5085318;28;20211;-68
2021/05/28 09:16:53;;;;;;;0.10;0.10;;;;;;;;;;5085655;28;20202;-69
2021/05/28 09:19:23;;;;;;;0.00;0.00;;;;;;;;;;5085215;28;20234;-68
2021/05/28 09:21:54;;;;;;;0.10;0.10;;;;;;;;;;5092589;28;20205;-68
2021/05/28 09:24:26;;;;;;;0.10;0.10;;;;;;;;;;5087128;28;20199;-67
2021/05/28 09:26:52;;;;;;;0.30;0.30;;;;;;;;;;5072840;28;20202;-68
2021/05/28 09:29:19;;;;;;;0.10;0.10;;;;;;;;;;5083332;28;20204;-67
2021/05/28 09:31:46;;;;;;;0.10;0.10;;;;;;;;;;5079539;28;20212;-67
2021/05/28 09:34:11;;;;;;;0.10;0.10;;;;;;;;;;5079631;28;20203;-69
2021/05/28 09:36:40;;;;;;;0.10;0.10;;;;;;;;;;5084729;28;20311;-68
2021/05/28 09:39:07;;;;;;;0.10;0.10;;;;;;;;;;5080368;28;20311;-67
2021/05/28 09:41:34;;;;;;;0.10;0.10;;;;;;;;;;5081848;28;20210;-68
2021/05/28 09:44:05;;;;;;;0.10;0.10;;;;;;;;;;5078368;28;20270;-68
2021/05/28 09:46:31;;;;;;;0.00;0.00;;;;;;;;;;5085205;28;20201;-68
2021/05/28 09:49:05;;;;;;;0.10;0.10;;;;;;;;;;5085996;28;20378;-67
2021/05/28 09:51:31;;;;;;;0.10;0.10;;;;;;;;;;5091646;28;20209;-67
2021/05/28 09:53:58;;;;;;;0.10;0.10;;;;;;;;;;5084165;28;20379;-66
2021/05/28 09:56:26;;;;;;;0.10;0.10;;;;;;;;;;5083998;28;20221;-67
2021/05/28 09:58:56;;;;;;;0.10;0.10;;;;;;;;;;5089244;28;20212;-67
2021/05/28 10:01:22;;;;;;;0.10;0.10;;;;;;;;;;5085724;28;20203;-67
2021/05/28 10:04:02;;;;;;;0.43;0.43;;;;;;;;;;5084145;28;20203;-66
2021/05/28 10:06:28;;;;;;;0.10;0.10;;;;;;;;;;5088647;28;20548;-67
2021/05/28 10:08:55;;;;;;;0.10;0.10;;;;;;;;;;5080072;28;20218;-67
2021/05/28 10:11:22;;;;;;;0.10;0.10;;;;;;;;;;5089374;28;20265;-69
2021/05/28 10:13:48;;;;;;;0.10;0.10;;;;;;;;;;5084303;28;20210;-68
2021/05/28 10:16:14;;;;;;;0.10;0.10;;;;;;;;;;5083480;28;20265;-67
2021/05/28 10:18:40;;;;;;;0.10;0.10;;;;;;;;;;5084699;28;20212;-67
2021/05/28 10:21:06;;;;;;;0.10;0.10;;;;;;;;;;5087175;28;20314;-68
2021/05/28 10:23:32;;;;;;;0.10;0.10;;;;;;;;;;5084245;28;20270;-67
2021/05/28 10:25:58;;;;;;;0.10;0.10;;;;;;;;;;5091856;28;20223;-68
2021/05/28 10:28:30;;;;;;;0.10;0.10;;;;;;;;;;5084187;28;20209;-67
2021/05/28 10:30:55;;;;;;;0.00;0.00;;;;;;;;;;5075908;28;20388;-68
2021/05/28 10:33:23;;;;;;;0.10;0.10;;;;;;;;;;5087171;28;20226;-70
2021/05/28 10:35:50;;;;;;;0.10;0.10;;;;;;;;;;5084308;28;20203;-66
2021/05/28 10:38:35;;;;;;;0.10;0.10;;;;;;;;;;5072475;28;20413;-67
2021/05/28 10:41:15;;;;;;;0.10;0.10;;;;;;;;;;5091047;28;20217;-67
2021/05/28 10:43:56;;;;;;;0.10;0.10;;;;;;;;;;5085173;28;20355;-67
2021/05/28 10:46:23;;;;;;;0.07;0.07;;;;;;;;;;5081462;28;20220;-67
2021/05/28 10:49:08;;;;;;;0.07;0.07;;;;;;;;;;5079499;28;20237;-69
2021/05/28 10:51:52;;;;;;;0.10;0.10;;;;;;;;;;5083996;28;20382;-67
2021/05/28 10:54:25;;;;;;;0.10;0.10;;;;;;;;;;5072938;28;20493;-66
2021/05/28 10:56:50;;;;;;;0.10;0.10;;;;;;;;;;5086889;28;20290;-68
2021/05/28 10:59:17;;;;;;;0.10;0.10;;;;;;;;;;5083797;28;20206;-67
2021/05/28 11:01:44;;;;;;;0.10;0.10;;;;;;;;;;5086877;28;20213;-67
2021/05/28 11:04:11;;;;;;;0.10;0.10;;;;;;;;;;5083630;28;20251;-67
2021/05/28 11:06:52;;;;;;;0.10;0.10;;;;;;;;;;5075170;28;20207;-67
2021/05/28 11:09:18;;;;;;;0.10;0.10;;;;;;;;;;5076492;28;20215;-70
2021/05/28 11:11:47;;;;;;;0.10;0.10;;;;;;;;;;5080151;28;20202;-68
2021/05/28 11:14:13;;;;;;;0.10;0.10;;;;;;;;;;5083597;28;20206;-68
2021/05/28 11:16:55;;;;;;;0.10;0.10;;;;;;;;;;5078972;28;20211;-68
2021/05/28 11:19:22;;;;;;;0.10;0.10;;;;;;;;;;5081127;28;20248;-66
2021/05/28 11:21:52;;;;;;;0.10;0.10;;;;;;;;;;5083275;28;20207;-67
2021/05/28 11:24:18;;;;;;;0.10;0.10;;;;;;;;;;5077630;28;20197;-68
2021/05/28 11:26:44;;;;;;;0.10;0.10;;;;;;;;;;5092896;28;20216;-66
2021/05/28 11:29:19;;;;;;;0.10;0.10;;;;;;;;;;5082642;28;20214;-66
2021/05/28 11:31:45;;;;;;;0.10;0.10;;;;;;;;;;5089051;28;20201;-67
2021/05/28 11:34:11;;;;;;;0.00;0.00;;;;;;;;;;5086516;28;20209;-67
2021/05/28 11:36:41;;;;;;;0.10;0.10;;;;;;;;;;5085921;28;20230;-66
2021/05/28 11:39:07;;;;;;;0.10;0.10;;;;;;;;;;5084883;28;20245;-67
2021/05/28 11:41:46;;;;;;;0.10;0.10;;;;;;;;;;5085456;28;20200;-67
2021/05/28 11:44:15;;;;;;;0.10;0.10;;;;;;;;;;5085625;28;20213;-68
2021/05/28 11:46:42;;;;;;;0.00;0.00;;;;;;;;;;5068787;28;20392;-69
2021/05/28 11:49:08;;;;;;;0.10;0.10;;;;;;;;;;5087082;28;20201;-68
2021/05/28 11:51:34;;;;;;;0.00;0.00;;;;;;;;;;5081675;28;20203;-66
2021/05/28 11:54:01;;;;;;;0.10;0.10;;;;;;;;;;5095450;28;20502;-68
2021/05/28 11:56:28;;;;;;;0.03;0.03;;;;;;;;;;5087319;28;20203;-67
2021/05/28 11:58:53;;;;;;;0.00;0.00;;;;;;;;;;5083668;28;20386;-68
2021/05/28 12:01:20;;;;;;;0.10;0.10;;;;;;;;;;5080808;28;20209;-68
2021/05/28 12:03:46;;;;;;;0.10;0.10;;;;;;;;;;5082997;28;20210;-68
2021/05/28 12:06:12;;;;;;;0.10;0.10;;;;;;;;;;5078534;28;20234;-67
2021/05/28 12:08:41;;;;;;;0.00;0.00;;;;;;;;;;5083404;28;20205;-69
2021/05/28 12:11:09;;;;;;;0.10;0.10;;;;;;;;;;5082957;28;20531;-67
2021/05/28 12:13:36;;;;;;;0.00;0.00;;;;;;;;;;5089284;28;20234;-68
2021/05/28 12:16:03;;;;;;;0.10;0.10;;;;;;;;;;5076805;28;20380;-69
2021/05/28 12:18:30;;;;;;;0.00;0.00;;;;;;;;;;5080868;28;20210;-67
2021/05/28 12:20:58;;;;;;;0.10;0.10;;;;;;;;;;5085910;28;20291;-68
2021/05/28 12:23:25;;;;;;;0.10;0.10;;;;;;;;;;5078587;28;20203;-68
2021/05/28 12:25:52;;;;;;;0.10;0.10;;;;;;;;;;5087742;28;20228;-67
2021/05/28 12:28:23;;;;;;;0.10;0.10;;;;;;;;;;5090239;28;20225;-68
2021/05/28 12:30:51;;;;;;;0.10;0.10;;;;;;;;;;5083516;28;20205;-68
2021/05/28 12:33:17;;;;;;;0.10;0.10;;;;;;;;;;5093757;28;20259;-70
2021/05/28 12:35:48;;;;;;;0.10;0.10;;;;;;;;;;5086810;28;20204;-68
2021/05/28 12:38:15;;;;;;;0.10;0.10;;;;;;;;;;5082571;28;20237;-70
2021/05/28 12:40:43;;;;;;;0.10;0.10;;;;;;;;;;5085980;28;20214;-68
2021/05/28 12:43:10;;;;;;;0.10;0.10;;;;;;;;;;5088310;28;20204;-68
2021/05/28 12:45:38;;;;;;;0.10;0.10;;;;;;;;;;5086145;28;20233;-68
2021/05/28 12:48:04;;;;;;;0.10;0.10;;;;;;;;;;5090654;28;20273;-69
2021/05/28 12:50:33;;;;;;;0.10;0.10;;;;;;;;;;5085407;28;20205;-71
2021/05/28 12:53:00;;;;;;;0.10;0.10;;;;;;;;;;5087591;28;20273;-68
2021/05/28 12:55:27;;;;;;;0.10;0.10;;;;;;;;;;5088183;28;20353;-67
2021/05/28 12:57:53;;;;;;;0.10;0.10;;;;;;;;;;5086368;28;20204;-69
2021/05/28 13:00:30;;;;;;;0.10;0.10;;;;;;;;;;5086290;28;20207;-69
2021/05/28 13:02:57;;;;;;;0.10;0.10;;;;;;;;;;5089120;28;20203;-73
2021/05/28 13:05:31;;;;;;;0.10;0.10;;;;;;;;;;5078485;28;20624;-73
2021/05/28 13:07:57;;;;;;;0.10;0.10;;;;;;;;;;5084482;28;20207;-75
2021/05/28 13:10:24;;;;;;;0.10;0.10;;;;;;;;;;5090909;28;20207;-74
2021/05/28 13:12:50;;;;;;;0.10;0.10;;;;;;;;;;5091895;28;20215;-74
2021/05/28 13:15:18;;;;;;;0.10;0.10;;;;;;;;;;5078612;28;20231;-75
2021/05/28 13:17:52;;;;;;;0.10;0.10;;;;;;;;;;5086772;28;20271;-75
2021/05/28 13:20:19;;;;;;;0.10;0.10;;;;;;;;;;5103658;28;20202;-74
2021/05/28 13:22:45;;;;;;;0.10;0.10;;;;;;;;;;5101317;28;20210;-75
2021/05/28 13:25:19;;;;;;;0.10;0.10;;;;;;;;;;5085036;28;20516;-68
2021/05/28 13:27:47;;;;;;;0.10;0.10;;;;;;;;;;5089416;28;20206;-67
2021/05/28 13:30:14;;;;;;;0.00;0.00;;;;;;;;;;5083142;28;20234;-68
2021/05/28 13:32:42;;;;;;;0.00;0.00;;;;;;;;;;5088093;28;20304;-67
2021/05/28 13:35:09;;;;;;;0.10;0.10;;;;;;;;;;5086915;28;20230;-67
2021/05/28 13:37:36;;;;;;;0.10;0.10;;;;;;;;;;5089784;28;20550;-67
2021/05/28 13:40:03;;;;;;;0.10;0.10;;;;;;;;;;5087972;28;20220;-67
2021/05/28 13:42:29;;;;;;;0.03;0.03;;;;;;;;;;5094231;28;20239;-67
2021/05/28 13:44:55;;;;;;;0.10;0.10;;;;;;;;;;5089852;28;20228;-67
2021/05/28 13:47:21;;;;;;;0.10;0.10;;;;;;;;;;5087872;28;20230;-67
2021/05/28 13:49:47;;;;;;;0.10;0.10;;;;;;;;;;5087790;28;20202;-68
2021/05/28 13:52:13;;;;;;;0.10;0.10;;;;;;;;;;5090032;28;20208;-68
2021/05/28 13:54:40;;;;;;;0.10;0.10;;;;;;;;;;5090631;28;20227;-68
2021/05/28 13:57:07;;;;;;;0.10;0.10;;;;;;;;;;5084002;28;20207;-68
2021/05/28 13:59:33;;;;;;;0.10;0.10;;;;;;;;;;5088807;28;20503;-68
2021/05/28 14:02:00;;;;;;;0.10;0.10;;;;;;;;;;5087192;28;20446;-67
2021/05/28 14:04:26;;;;;;;0.10;0.10;;;;;;;;;;5086693;28;20202;-67
2021/05/28 14:06:53;;;;;;;0.07;0.07;;;;;;;;;;5084510;28;20196;-67
2021/05/28 14:09:21;;;;;;;0.00;0.00;;;;;;;;;;5087666;28;20207;-66
2021/05/28 14:11:48;;;;;;;0.10;0.10;;;;;;;;;;5081092;28;20416;-66
2021/05/28 14:14:14;;;;;;;0.10;0.10;;;;;;;;;;5096078;28;20284;-67
2021/05/28 14:16:40;;;;;;;0.10;0.10;;;;;;;;;;5091187;28;20204;-66
2021/05/28 14:19:06;;;;;;;0.07;0.07;;;;;;;;;;5090765;28;20204;-68
2021/05/28 14:21:32;;;;;;;0.00;0.00;;;;;;;;;;5085821;28;20243;-66
2021/05/28 14:23:58;;;;;;;0.10;0.10;;;;;;;;;;5077902;28;20215;-65
2021/05/28 14:26:24;;;;;;;0.10;0.10;;;;;;;;;;5083587;28;20224;-67
2021/05/28 14:28:50;;;;;;;0.10;0.10;;;;;;;;;;5084458;28;20227;-67
2021/05/28 14:31:16;;;;;;;0.10;0.10;;;;;;;;;;5080656;28;20237;-67
2021/05/28 14:33:57;;;;;;;0.10;0.10;;;;;;;;;;5082224;28;20289;-67
2021/05/28 14:36:24;;;;;;;0.10;0.10;;;;;;;;;;5074969;28;20199;-68
2021/05/28 14:38:50;;;;;;;0.00;0.00;;;;;;;;;;5077496;28;20230;-68
2021/05/28 14:41:16;;;;;;;0.00;0.00;;;;;;;;;;5088805;28;20204;-67